Time;durP1;ratioP1;P1;durP2;ratioP2;P2;SDS_P1;SDS_P2;PMS_P1;PMS_P2;Temp;Humidity;BMP_temperature;BMP_pressure;BME280_temperature;BME280_humidity;BME280_pressure;Samples;Min_cycle;Max_cycle;Signal;HPM_P1;HPM_P2
2023/07/13 00:01:28;;;;;;;9.60;2.38;;;16.50;99.90;;;;;;5074939;28;20409;-56
2023/07/13 00:03:56;;;;;;;14.25;2.60;;;16.50;99.90;;;;;;5074928;28;20111;-56
2023/07/13 00:06:23;;;;;;;8.88;2.42;;;16.50;99.90;;;;;;5074911;28;20086;-55
2023/07/13 00:08:49;;;;;;;11.30;2.25;;;16.60;99.90;;;;;;5074751;28;20049;-56
2023/07/13 00:11:16;;;;;;;9.10;2.20;;;16.60;99.90;;;;;;5074806;28;20043;-56
2023/07/13 00:13:42;;;;;;;12.95;2.55;;;16.60;99.90;;;;;;5074868;28;20101;-56
2023/07/13 00:16:09;;;;;;;10.88;2.72;;;16.60;99.90;;;;;;5072496;28;20048;-56
2023/07/13 00:18:35;;;;;;;9.48;2.38;;;16.60;99.90;;;;;;5061622;28;20115;-56
2023/07/13 00:21:05;;;;;;;8.35;2.50;;;16.60;99.90;;;;;;5074581;28;20199;-57
2023/07/13 00:23:35;;;;;;;6.15;2.13;;;16.50;99.90;;;;;;5074555;28;20399;-56
2023/07/13 00:26:03;;;;;;;9.57;2.58;;;16.60;99.90;;;;;;5074600;28;20041;-57
2023/07/13 00:28:28;;;;;;;10.85;2.65;;;16.60;99.90;;;;;;5074533;28;20075;-56
2023/07/13 00:30:54;;;;;;;10.30;2.70;;;16.60;99.90;;;;;;5074563;28;20063;-56
2023/07/13 00:33:21;;;;;;;13.02;2.67;;;16.70;99.90;;;;;;5074118;28;20479;-56
2023/07/13 00:35:47;;;;;;;12.82;3.00;;;16.60;99.90;;;;;;5074166;28;20052;-57
2023/07/13 00:38:13;;;;;;;10.55;2.63;;;16.60;99.90;;;;;;5074199;28;20048;-56
2023/07/13 00:40:38;;;;;;;7.47;2.53;;;16.60;99.90;;;;;;5074413;28;20382;-56
2023/07/13 00:43:11;;;;;;;15.80;3.22;;;16.60;99.90;;;;;;5074211;28;20047;-55
2023/07/13 00:45:37;;;;;;;15.63;2.75;;;16.60;99.90;;;;;;5073920;28;20518;-56
2023/07/13 00:48:02;;;;;;;16.02;3.15;;;16.70;99.90;;;;;;5074001;28;20041;-56
2023/07/13 00:50:28;;;;;;;12.77;2.55;;;16.70;99.90;;;;;;5073731;28;20040;-56
2023/07/13 00:52:57;;;;;;;15.10;3.10;;;16.60;99.90;;;;;;5074042;28;20048;-56
2023/07/13 00:55:23;;;;;;;12.02;2.75;;;16.60;99.90;;;;;;5073894;28;20087;-56
2023/07/13 00:57:49;;;;;;;14.90;3.20;;;16.60;99.90;;;;;;5073966;28;20068;-56
2023/07/13 01:00:16;;;;;;;7.97;2.55;;;16.70;99.90;;;;;;5071725;28;20497;-56
2023/07/13 01:02:44;;;;;;;12.55;2.80;;;16.60;99.90;;;;;;5052672;28;20041;-56
2023/07/13 01:05:12;;;;;;;8.25;2.83;;;16.60;99.90;;;;;;5057145;28;20386;-56
2023/07/13 01:07:38;;;;;;;13.70;2.78;;;16.60;99.90;;;;;;5061607;28;20047;-55
2023/07/13 01:10:04;;;;;;;9.88;2.80;;;16.60;99.90;;;;;;5066856;28;20037;-56
2023/07/13 01:12:30;;;;;;;11.25;2.65;;;16.60;99.90;;;;;;5066819;28;20051;-56
2023/07/13 01:15:01;;;;;;;10.80;3.50;;;16.50;99.90;;;;;;5073698;28;20049;-57
2023/07/13 01:17:28;;;;;;;12.70;2.83;;;16.50;99.90;;;;;;5089215;28;20049;-56
2023/07/13 01:19:54;;;;;;;13.20;2.80;;;16.50;99.90;;;;;;5059121;28;20043;-56
2023/07/13 01:22:25;;;;;;;13.38;2.40;;;16.40;99.90;;;;;;5073449;28;20043;-56
2023/07/13 01:24:51;;;;;;;15.40;3.17;;;16.40;99.90;;;;;;5073037;28;20506;-56
2023/07/13 01:27:21;;;;;;;16.40;3.30;;;16.40;99.90;;;;;;5073244;28;20075;-56
2023/07/13 01:29:47;;;;;;;11.35;3.15;;;16.40;99.90;;;;;;5073262;28;20444;-57
2023/07/13 01:32:23;;;;;;;10.10;2.88;;;16.40;99.90;;;;;;5073214;28;20040;-56
2023/07/13 01:34:56;;;;;;;8.88;3.08;;;16.30;99.90;;;;;;5073114;28;20083;-56
2023/07/13 01:37:24;;;;;;;13.88;2.90;;;16.30;99.90;;;;;;5060215;28;20055;-55
2023/07/13 01:39:49;;;;;;;14.82;3.67;;;16.30;99.90;;;;;;5073033;28;20047;-56
2023/07/13 01:42:15;;;;;;;13.10;3.58;;;16.40;99.90;;;;;;5072976;28;20115;-56
2023/07/13 01:44:41;;;;;;;13.55;3.22;;;16.30;99.90;;;;;;5073233;28;20093;-57
2023/07/13 01:47:07;;;;;;;13.80;3.33;;;16.30;99.90;;;;;;5073214;28;20037;-57
2023/07/13 01:49:32;;;;;;;12.13;3.55;;;16.40;99.90;;;;;;5072698;28;20039;-56
2023/07/13 01:51:58;;;;;;;13.23;2.85;;;16.40;99.90;;;;;;5072482;28;20119;-56
2023/07/13 01:54:24;;;;;;;14.15;3.45;;;16.40;99.90;;;;;;5072782;28;20045;-54
2023/07/13 01:56:49;;;;;;;11.48;2.70;;;16.40;99.90;;;;;;5072883;28;20123;-56
2023/07/13 01:59:15;;;;;;;14.38;3.28;;;16.50;99.90;;;;;;5071447;28;20094;-56
2023/07/13 02:01:40;;;;;;;13.55;3.22;;;16.40;99.90;;;;;;5072257;28;20048;-57
2023/07/13 02:04:06;;;;;;;12.85;2.97;;;16.40;99.90;;;;;;5072795;28;20032;-57
2023/07/13 02:06:32;;;;;;;11.40;2.97;;;16.50;99.90;;;;;;5072779;28;20367;-56
2023/07/13 02:08:58;;;;;;;12.80;3.28;;;16.40;99.90;;;;;;5072509;28;20442;-56
2023/07/13 02:11:24;;;;;;;10.07;2.90;;;16.50;99.90;;;;;;5058871;28;20037;-55
2023/07/13 02:13:50;;;;;;;13.02;2.97;;;16.40;99.90;;;;;;5072296;28;20043;-56
2023/07/13 02:16:16;;;;;;;19.65;3.13;;;16.40;99.90;;;;;;5072648;28;20119;-55
2023/07/13 02:18:42;;;;;;;13.10;2.92;;;16.50;99.90;;;;;;5072503;28;20132;-56
2023/07/13 02:21:07;;;;;;;9.68;3.03;;;16.50;99.90;;;;;;5070851;28;20044;-56
2023/07/13 02:23:33;;;;;;;6.50;2.65;;;16.30;99.90;;;;;;5072535;28;20045;-56
2023/07/13 02:26:02;;;;;;;13.05;2.88;;;16.40;99.90;;;;;;5072400;28;20046;-56
2023/07/13 02:28:28;;;;;;;10.98;3.33;;;16.30;99.90;;;;;;5072312;28;20233;-56
2023/07/13 02:30:53;;;;;;;13.43;3.15;;;16.30;99.90;;;;;;5072544;28;20043;-56
2023/07/13 02:33:19;;;;;;;12.07;2.92;;;16.30;99.90;;;;;;5072383;28;20032;-56
2023/07/13 02:35:45;;;;;;;9.60;3.10;;;16.30;99.90;;;;;;5072493;28;20129;-56
2023/07/13 02:38:10;;;;;;;12.07;2.97;;;16.20;99.90;;;;;;5072273;28;20040;-56
2023/07/13 02:40:36;;;;;;;7.85;2.55;;;16.20;99.90;;;;;;5071830;28;20048;-56
2023/07/13 02:43:03;;;;;;;10.73;3.47;;;16.20;99.90;;;;;;5072055;28;20048;-56
2023/07/13 02:45:28;;;;;;;11.82;3.08;;;16.10;99.90;;;;;;5072325;28;20041;-55
2023/07/13 02:47:54;;;;;;;12.50;3.03;;;16.10;99.90;;;;;;5072046;28;20079;-56
2023/07/13 02:50:20;;;;;;;8.70;2.88;;;16.10;99.90;;;;;;5072329;28;20036;-56
2023/07/13 02:52:46;;;;;;;11.63;3.55;;;16.10;99.90;;;;;;5072079;28;20063;-57
2023/07/13 02:55:12;;;;;;;9.75;3.13;;;16.00;99.90;;;;;;5071732;28;20538;-56
2023/07/13 02:57:38;;;;;;;13.73;3.42;;;16.00;99.90;;;;;;5071922;28;20041;-56
2023/07/13 03:00:05;;;;;;;13.18;3.67;;;16.00;99.90;;;;;;5071920;28;20486;-57
2023/07/13 03:02:32;;;;;;;12.52;3.05;;;16.00;99.90;;;;;;5070734;28;20047;-56
2023/07/13 03:04:58;;;;;;;14.15;4.15;;;16.00;99.90;;;;;;5071831;28;20037;-56
2023/07/13 03:07:25;;;;;;;15.98;3.28;;;16.00;99.90;;;;;;5071810;28;20390;-56
2023/07/13 03:09:57;;;;;;;15.45;4.22;;;15.90;99.90;;;;;;5064574;28;20077;-56
2023/07/13 03:12:23;;;;;;;13.18;4.05;;;15.90;99.90;;;;;;5065987;28;20141;-56
2023/07/13 03:14:48;;;;;;;15.70;4.63;;;15.90;99.90;;;;;;5075933;28;20044;-56
2023/07/13 03:17:14;;;;;;;14.43;4.53;;;15.90;99.90;;;;;;5076008;28;20041;-56
2023/07/13 03:19:40;;;;;;;18.88;4.88;;;15.90;99.90;;;;;;5075855;28;20486;-56
2023/07/13 03:22:05;;;;;;;15.70;4.22;;;15.90;99.90;;;;;;5075970;28;20067;-56
2023/07/13 03:24:33;;;;;;;16.30;3.97;;;15.90;99.90;;;;;;5075874;28;20078;-56
2023/07/13 03:27:00;;;;;;;16.13;4.22;;;15.90;99.90;;;;;;5075821;28;20058;-55
2023/07/13 03:29:26;;;;;;;13.30;4.07;;;15.80;99.90;;;;;;5075349;28;20045;-56
2023/07/13 03:31:51;;;;;;;17.40;4.35;;;15.80;99.90;;;;;;5075770;28;20041;-55
2023/07/13 03:34:17;;;;;;;13.45;4.60;;;15.70;99.90;;;;;;5075554;28;20043;-56
2023/07/13 03:36:43;;;;;;;15.20;3.60;;;15.80;99.90;;;;;;5075294;28;20478;-57
2023/07/13 03:39:09;;;;;;;17.10;4.55;;;15.90;99.90;;;;;;5074195;28;20044;-56
2023/07/13 03:41:35;;;;;;;20.10;4.20;;;15.80;99.90;;;;;;5075081;28;20044;-56
2023/07/13 03:44:00;;;;;;;12.20;3.97;;;15.90;99.90;;;;;;5075715;28;20044;-56
2023/07/13 03:46:27;;;;;;;13.60;3.67;;;15.90;99.90;;;;;;5075333;28;20511;-56
2023/07/13 03:48:53;;;;;;;16.02;3.55;;;15.80;99.90;;;;;;5075386;28;20045;-55
2023/07/13 03:51:19;;;;;;;7.85;3.03;;;15.90;99.90;;;;;;5075083;28;20395;-55
2023/07/13 03:53:47;;;;;;;9.85;3.55;;;15.90;99.90;;;;;;5074512;28;20057;-55
2023/07/13 03:56:15;;;;;;;11.23;3.57;;;16.00;99.90;;;;;;5075070;28;20068;-57
2023/07/13 03:58:42;;;;;;;12.10;3.60;;;16.00;99.90;;;;;;5075042;28;20044;-56
2023/07/13 04:01:09;;;;;;;12.80;3.63;;;16.00;99.90;;;;;;5075083;28;20044;-56
2023/07/13 04:03:36;;;;;;;12.93;3.40;;;16.10;99.90;;;;;;5074280;28;20479;-57
2023/07/13 04:06:04;;;;;;;20.75;4.43;;;16.00;99.90;;;;;;5074597;28;20445;-56
2023/07/13 04:08:33;;;;;;;14.25;4.03;;;16.10;99.90;;;;;;5074957;28;20374;-56
2023/07/13 04:10:59;;;;;;;;;;;16.00;99.90;;;;;;5061144;28;20040;-56
2023/07/13 04:13:25;;;;;;;16.48;3.70;;;16.00;99.90;;;;;;5075272;28;19916;-56
2023/07/13 04:15:52;;;;;;;13.85;3.60;;;16.10;99.90;;;;;;5073148;28;20517;-56
2023/07/13 04:18:19;;;;;;;12.77;3.35;;;16.00;99.90;;;;;;5074991;28;20071;-54
2023/07/13 04:20:46;;;;;;;15.68;3.65;;;16.00;99.90;;;;;;5074485;28;20111;-56
2023/07/13 04:23:12;;;;;;;15.70;3.22;;;16.10;99.90;;;;;;5074224;28;20083;-56
2023/07/13 04:25:37;;;;;;;17.73;3.67;;;16.00;99.90;;;;;;5074414;28;20064;-56
2023/07/13 04:28:04;;;;;;;13.98;3.67;;;16.10;99.90;;;;;;5074586;28;20032;-56
2023/07/13 04:30:29;;;;;;;14.07;3.65;;;16.10;99.90;;;;;;5074528;28;20029;-56
2023/07/13 04:32:55;;;;;;;16.48;4.93;;;16.10;99.90;;;;;;5074606;28;20436;-56
2023/07/13 04:35:21;;;;;;;12.73;3.90;;;16.20;99.90;;;;;;5074174;28;20390;-56
2023/07/13 04:37:50;;;;;;;18.45;4.60;;;16.10;99.90;;;;;;5074307;28;20166;-55
2023/07/13 04:40:17;;;;;;;18.20;4.43;;;16.10;99.90;;;;;;5074325;28;20040;-56
2023/07/13 04:42:43;;;;;;;15.50;4.05;;;16.20;99.90;;;;;;5074399;28;20117;-54
2023/07/13 04:45:09;;;;;;;15.20;3.17;;;16.20;99.90;;;;;;5074202;28;20048;-56
2023/07/13 04:47:34;;;;;;;14.55;3.70;;;16.30;99.90;;;;;;5073929;28;20028;-56
2023/07/13 04:50:00;;;;;;;17.85;3.80;;;16.30;99.90;;;;;;5074221;28;20111;-56
2023/07/13 04:52:25;;;;;;;14.35;4.10;;;16.40;99.90;;;;;;5073851;28;20083;-56
2023/07/13 04:54:51;;;;;;;14.88;4.30;;;16.40;99.90;;;;;;5074164;28;20041;-56
2023/07/13 04:57:17;;;;;;;21.30;4.57;;;16.60;99.90;;;;;;5074042;28;20086;-56
2023/07/13 04:59:42;;;;;;;10.80;3.72;;;16.70;99.90;;;;;;5073984;28;20487;-54
2023/07/13 05:02:08;;;;;;;15.35;4.50;;;16.70;99.90;;;;;;5074020;28;20051;-55
2023/07/13 05:04:34;;;;;;;15.82;3.63;;;16.70;99.90;;;;;;5073913;28;20085;-57
2023/07/13 05:06:59;;;;;;;16.80;4.47;;;16.80;99.90;;;;;;5073977;28;20036;-56
2023/07/13 05:09:25;;;;;;;12.07;3.80;;;16.90;99.90;;;;;;5070276;28;20032;-56
2023/07/13 05:11:51;;;;;;;13.02;3.85;;;16.90;99.90;;;;;;5065697;28;20029;-56
2023/07/13 05:14:17;;;;;;;20.80;4.50;;;17.00;99.90;;;;;;5064584;28;20072;-56
2023/07/13 05:16:42;;;;;;;12.82;4.20;;;17.10;99.90;;;;;;5072295;28;20111;-56
2023/07/13 05:19:08;;;;;;;14.00;3.90;;;17.10;99.90;;;;;;5073215;28;20050;-56
2023/07/13 05:21:34;;;;;;;18.83;4.20;;;17.10;99.90;;;;;;5055001;28;20078;-56
2023/07/13 05:24:00;;;;;;;16.30;4.07;;;17.20;99.90;;;;;;5056386;28;20049;-56
2023/07/13 05:26:26;;;;;;;11.38;3.53;;;17.30;99.90;;;;;;5059445;28;20029;-56
2023/07/13 05:28:51;;;;;;;13.93;4.13;;;17.30;99.90;;;;;;5059136;28;20037;-56
2023/07/13 05:31:17;;;;;;;14.68;3.55;;;17.40;99.90;;;;;;5063597;28;20036;-56
2023/07/13 05:33:42;;;;;;;19.42;3.90;;;17.40;99.90;;;;;;5060768;28;20091;-56
2023/07/13 05:36:09;;;;;;;10.25;3.05;;;17.50;99.90;;;;;;5067304;28;20099;-56
2023/07/13 05:38:34;;;;;;;15.57;3.90;;;17.50;99.90;;;;;;5064665;28;20037;-56
2023/07/13 05:41:00;;;;;;;9.88;3.65;;;17.60;99.90;;;;;;5069066;28;20059;-56
2023/07/13 05:43:26;;;;;;;13.07;3.45;;;17.70;99.90;;;;;;5069879;28;20148;-56
2023/07/13 05:45:56;;;;;;;13.60;3.25;;;17.70;99.90;;;;;;5072903;28;20040;-56
2023/07/13 05:48:22;;;;;;;13.88;3.45;;;17.80;99.90;;;;;;5057808;28;20033;-56
2023/07/13 05:50:47;;;;;;;10.75;3.50;;;17.80;99.90;;;;;;5055263;28;20033;-57
2023/07/13 05:53:13;;;;;;;18.98;3.58;;;17.90;99.90;;;;;;5059103;28;20060;-57
2023/07/13 05:55:43;;;;;;;10.38;2.88;;;17.90;99.90;;;;;;5057295;28;20049;-56
2023/07/13 05:58:09;;;;;;;18.15;3.22;;;18.00;99.90;;;;;;5063549;28;20048;-59
2023/07/13 06:00:35;;;;;;;14.73;3.40;;;18.20;99.90;;;;;;5058202;28;20065;-58
2023/07/13 06:03:01;;;;;;;12.90;3.28;;;18.30;99.90;;;;;;5060932;28;20068;-58
2023/07/13 06:05:28;;;;;;;11.88;3.17;;;18.30;99.90;;;;;;5062634;28;20037;-58
2023/07/13 06:07:54;;;;;;;13.07;3.50;;;18.40;99.90;;;;;;5064401;28;20051;-58
2023/07/13 06:10:20;;;;;;;12.73;3.15;;;18.50;99.90;;;;;;5068279;28;20055;-58
2023/07/13 06:12:46;;;;;;;12.57;3.40;;;18.60;99.90;;;;;;5071501;28;20561;-58
2023/07/13 06:15:12;;;;;;;12.35;3.03;;;18.70;99.90;;;;;;5069952;28;20092;-56
2023/07/13 06:17:38;;;;;;;16.20;2.90;;;18.70;99.90;;;;;;5069400;28;20194;-57
2023/07/13 06:20:04;;;;;;;12.80;3.47;;;18.80;99.90;;;;;;5052591;28;20123;-56
2023/07/13 06:22:29;;;;;;;13.48;3.35;;;18.90;99.90;;;;;;5052677;28;20086;-56
2023/07/13 06:24:55;;;;;;;9.50;3.60;;;19.00;99.90;;;;;;5052418;28;20545;-57
2023/07/13 06:27:21;;;;;;;14.27;3.08;;;19.10;99.90;;;;;;5052488;28;20048;-56
2023/07/13 06:29:46;;;;;;;8.32;3.13;;;19.10;99.90;;;;;;5051987;28;20036;-57
2023/07/13 06:32:12;;;;;;;19.77;3.47;;;19.10;99.90;;;;;;5052278;28;20395;-56
2023/07/13 06:34:38;;;;;;;10.80;2.78;;;19.30;99.90;;;;;;5051221;28;20126;-57
2023/07/13 06:37:03;;;;;;;10.90;2.75;;;19.30;99.90;;;;;;5052305;28;20044;-56
2023/07/13 06:39:29;;;;;;;7.47;2.50;;;19.40;99.90;;;;;;5050795;28;20450;-56
2023/07/13 06:41:54;;;;;;;8.38;2.08;;;19.50;99.90;;;;;;5056191;28;21621;-56
2023/07/13 06:44:20;;;;;;;13.98;3.50;;;19.60;99.90;;;;;;5051950;28;20033;-58
2023/07/13 06:46:46;;;;;;;10.98;2.50;;;19.70;99.90;;;;;;5051518;28;20090;-58
2023/07/13 06:49:11;;;;;;;15.13;2.78;;;19.80;99.90;;;;;;5052288;28;20033;-58
2023/07/13 06:51:37;;;;;;;8.35;2.28;;;20.00;99.90;;;;;;5052207;28;20116;-58
2023/07/13 06:54:03;;;;;;;5.93;1.98;;;20.00;99.90;;;;;;5050962;28;20057;-58
2023/07/13 06:56:29;;;;;;;9.77;2.45;;;20.30;99.90;;;;;;5051071;28;20110;-58
2023/07/13 06:58:54;;;;;;;6.93;2.05;;;20.50;99.90;;;;;;5051099;28;20116;-58
2023/07/13 07:01:20;;;;;;;6.07;2.20;;;20.40;99.90;;;;;;5057546;28;20037;-58
2023/07/13 07:03:47;;;;;;;13.88;2.80;;;20.30;99.90;;;;;;5051227;28;20049;-58
2023/07/13 07:06:14;;;;;;;31.13;3.67;;;20.50;99.90;;;;;;5051169;28;20033;-58
2023/07/13 07:08:40;;;;;;;16.03;1.97;;;20.50;99.90;;;;;;5050898;28;20395;-58
2023/07/13 07:11:11;;;;;;;12.20;2.58;;;20.70;99.90;;;;;;5049724;28;20040;-58
2023/07/13 07:13:37;;;;;;;18.85;2.60;;;20.80;99.90;;;;;;5058937;28;20049;-58
2023/07/13 07:16:02;;;;;;;7.53;2.05;;;20.70;99.90;;;;;;5061621;28;20056;-57
2023/07/13 07:18:28;;;;;;;9.27;2.35;;;20.60;99.90;;;;;;5050894;28;20056;-58
2023/07/13 07:20:53;;;;;;;10.63;2.55;;;20.30;99.90;;;;;;5050608;28;20399;-57
2023/07/13 07:23:19;;;;;;;8.77;1.90;;;20.00;99.90;;;;;;5049372;28;20045;-57
2023/07/13 07:25:45;;;;;;;7.63;1.85;;;19.70;99.90;;;;;;5050492;28;20056;-57
2023/07/13 07:28:11;;;;;;;11.23;2.05;;;19.60;99.90;;;;;;5050577;28;20041;-57
2023/07/13 07:30:37;;;;;;;7.72;1.80;;;19.50;99.90;;;;;;5050657;28;20495;-57
2023/07/13 07:33:03;;;;;;;4.72;1.75;;;19.30;99.90;;;;;;5050635;28;20044;-57
2023/07/13 07:35:29;;;;;;;6.35;2.20;;;19.40;99.90;;;;;;5051859;28;20049;-57
2023/07/13 07:37:55;;;;;;;9.25;2.20;;;19.40;99.90;;;;;;5059245;28;20033;-57
2023/07/13 07:40:20;;;;;;;4.93;1.70;;;19.40;99.90;;;;;;5049464;28;20076;-57
2023/07/13 07:42:46;;;;;;;8.93;1.90;;;19.30;99.90;;;;;;5057494;28;20044;-57
2023/07/13 07:45:12;;;;;;;8.15;1.75;;;19.30;99.90;;;;;;5051663;28;20040;-57
2023/07/13 07:47:38;;;;;;;6.15;2.05;;;19.30;99.90;;;;;;5050935;28;20033;-57
2023/07/13 07:50:04;;;;;;;7.03;1.60;;;19.30;99.90;;;;;;5050228;28;20148;-57
2023/07/13 07:52:30;;;;;;;8.00;2.20;;;19.30;99.90;;;;;;5012665;28;1084179;-57
2023/07/13 07:54:55;;;;;;;7.43;2.05;;;19.20;99.90;;;;;;5051107;28;20040;-57
2023/07/13 07:57:21;;;;;;;9.45;2.10;;;19.20;99.90;;;;;;5051086;28;20048;-57
2023/07/13 07:59:48;;;;;;;9.07;2.88;;;19.00;99.90;;;;;;5054223;28;20048;-57
2023/07/13 08:02:14;;;;;;;9.23;2.92;;;18.90;99.90;;;;;;5054530;28;20045;-56
2023/07/13 08:04:39;;;;;;;6.40;1.98;;;18.80;99.90;;;;;;5054372;28;20035;-57
2023/07/13 08:07:05;;;;;;;4.18;1.60;;;18.70;99.90;;;;;;5054297;28;20044;-57
2023/07/13 08:09:31;;;;;;;3.92;1.40;;;18.60;99.90;;;;;;5054642;28;20112;-56
2023/07/13 08:11:56;;;;;;;4.78;1.90;;;18.40;99.90;;;;;;5065532;28;20079;-56
2023/07/13 08:14:22;;;;;;;5.32;1.50;;;18.30;99.90;;;;;;5074160;28;20068;-56
2023/07/13 08:16:47;;;;;;;6.75;1.40;;;18.40;99.90;;;;;;5074536;28;20119;-56
2023/07/13 08:19:13;;;;;;;3.38;1.50;;;18.40;99.90;;;;;;5074593;28;20503;-58
2023/07/13 08:21:39;;;;;;;6.85;1.98;;;18.50;99.90;;;;;;5074554;28;20064;-56
2023/07/13 08:24:04;;;;;;;5.35;2.00;;;18.60;99.90;;;;;;5074355;28;20043;-57
2023/07/13 08:26:30;;;;;;;7.25;1.80;;;18.70;99.90;;;;;;5074272;28;20032;-56
2023/07/13 08:28:56;;;;;;;4.53;1.90;;;19.30;99.90;;;;;;5074724;28;20051;-57
2023/07/13 08:31:21;;;;;;;6.18;2.13;;;19.70;99.90;;;;;;5074313;28;20047;-57
2023/07/13 08:33:47;;;;;;;6.53;2.08;;;19.80;99.90;;;;;;5074355;28;20033;-57
2023/07/13 08:36:13;;;;;;;7.18;2.28;;;20.00;99.90;;;;;;5073987;28;20093;-57
2023/07/13 08:38:38;;;;;;;7.38;2.22;;;20.00;99.90;;;;;;5074385;28;20048;-57
2023/07/13 08:41:30;;;;;;;3.70;1.50;;;20.00;99.90;;;;;;5074281;28;20048;-57
2023/07/13 08:44:00;;;;;;;7.25;1.90;;;20.10;99.90;;;;;;5072243;28;20080;-57
2023/07/13 08:46:35;;;;;;;7.25;2.10;;;20.30;99.90;;;;;;5074436;28;20395;-57
2023/07/13 08:49:05;;;;;;;8.57;2.00;;;20.20;99.90;;;;;;5074471;28;20036;-56
2023/07/13 08:51:55;;;;;;;7.60;1.98;;;20.60;99.90;;;;;;5073997;28;20032;-57
2023/07/13 08:54:36;;;;;;;6.05;1.63;;;20.90;99.90;;;;;;5073639;28;20084;-57
2023/07/13 08:57:16;;;;;;;3.25;1.70;;;22.70;99.90;;;;;;5073535;28;20068;-58
2023/07/13 08:59:43;;;;;;;6.72;2.10;;;24.30;99.90;;;;;;5072771;28;20474;-59
2023/07/13 09:02:33;;;;;;;10.63;2.00;;;23.90;99.90;;;;;;5073376;28;20048;-58
2023/07/13 09:05:03;;;;;;;6.97;2.08;;;23.50;99.90;;;;;;5073572;28;20121;-58
2023/07/13 09:07:59;;;;;;;5.07;1.65;;;23.30;99.90;;;;;;5072049;28;20036;-59
2023/07/13 09:10:31;;;;;;;4.10;2.05;;;22.70;99.90;;;;;;5059922;28;20134;-58
2023/07/13 09:13:19;;;;;;;6.50;1.90;;;22.30;99.90;;;;;;5072326;28;20121;-58
2023/07/13 09:15:47;;;;;;;6.22;1.40;;;22.80;99.90;;;;;;5073185;28;20049;-58
2023/07/13 09:18:28;;;;;;;9.20;1.60;;;23.00;99.90;;;;;;5073291;28;20036;-58
2023/07/13 09:21:07;;;;;;;6.35;2.20;;;24.40;99.90;;;;;;5073039;28;20068;-58
2023/07/13 09:23:35;;;;;;;6.80;1.95;;;24.60;99.90;;;;;;5073098;28;20037;-58
2023/07/13 09:26:33;;;;;;;5.07;1.65;;;23.70;99.90;;;;;;5073024;28;20037;-59
2023/07/13 09:29:10;;;;;;;6.32;1.50;;;23.60;99.90;;;;;;5066772;28;20044;-64
2023/07/13 09:31:45;;;;;;;10.05;1.90;;;24.70;99.90;;;;;;5071717;28;20029;-64
2023/07/13 09:34:12;;;;;;;7.78;1.58;;;25.90;99.90;;;;;;5073327;28;20063;-64
2023/07/13 09:36:38;;;;;;;6.03;1.60;;;26.80;99.90;;;;;;5073794;28;20159;-64
2023/07/13 09:39:22;;;;;;;7.45;1.73;;;27.40;99.90;;;;;;5072491;28;20492;-65
2023/07/13 09:42:01;;;;;;;6.82;1.75;;;26.30;99.90;;;;;;5073221;28;20495;-65
2023/07/13 09:44:32;;;;;;;9.52;2.05;;;26.20;99.90;;;;;;5073686;28;20502;-64
2023/07/13 09:46:59;;;;;;;8.52;1.85;;;26.80;99.90;;;;;;5073749;28;20198;-66
2023/07/13 09:49:26;;;;;;;7.28;2.38;;;27.10;99.90;;;;;;5073680;28;20156;-65
2023/07/13 09:52:10;;;;;;;4.65;1.60;;;26.80;99.90;;;;;;5073421;28;20098;-65
2023/07/13 09:54:37;;;;;;;3.80;1.30;;;26.20;99.90;;;;;;5073211;28;20053;-65
2023/07/13 09:57:15;;;;;;;7.20;1.63;;;25.50;99.90;;;;;;5073134;28;20033;-65
2023/07/13 09:59:46;;;;;;;5.22;1.60;;;24.90;99.90;;;;;;5073467;28;20036;-66
2023/07/13 10:02:34;;;;;;;5.13;1.83;;;24.30;99.90;;;;;;5072847;28;20044;-65
2023/07/13 10:05:05;;;;;;;6.07;1.65;;;23.90;99.90;;;;;;5072862;28;20068;-66
2023/07/13 10:07:32;;;;;;;4.32;1.75;;;23.30;99.90;;;;;;5072971;28;20033;-65
2023/07/13 10:10:02;;;;;;;3.72;1.27;;;22.90;99.90;;;;;;5064924;28;20130;-66
2023/07/13 10:12:35;;;;;;;1.73;0.93;;;22.60;99.90;;;;;;5067987;28;20036;-65
2023/07/13 10:15:01;;;;;;;4.75;1.02;;;22.60;99.90;;;;;;5073010;28;20063;-64
2023/07/13 10:17:33;;;;;;;4.20;1.58;;;22.70;99.90;;;;;;5072970;28;20047;-66
2023/07/13 10:20:04;;;;;;;3.10;1.17;;;23.00;99.90;;;;;;5059863;28;20087;-65
2023/07/13 10:22:59;;;;;;;5.75;1.40;;;24.20;99.90;;;;;;5071998;28;20040;-66
2023/07/13 10:25:28;;;;;;;5.13;0.90;;;23.70;99.90;;;;;;5061823;28;20037;-66
2023/07/13 10:28:12;;;;;;;3.72;0.85;;;23.10;99.90;;;;;;5072964;28;20108;-66
2023/07/13 10:30:42;;;;;;;7.68;0.88;;;22.80;99.90;;;;;;5072648;28;20029;-64
2023/07/13 10:33:13;;;;;;;2.88;0.98;;;22.90;99.90;;;;;;5072354;28;20131;-65
2023/07/13 10:35:42;;;;;;;4.30;1.20;;;23.30;99.90;;;;;;5072629;28;20044;-64
2023/07/13 10:38:15;;;;;;;3.17;0.90;;;24.40;99.90;;;;;;5072086;28;20044;-65
2023/07/13 10:41:11;;;;;;;5.35;0.90;;;24.30;99.90;;;;;;5072434;28;20040;-65
2023/07/13 10:43:44;;;;;;;3.63;1.25;;;23.80;99.90;;;;;;5072428;28;20036;-65
2023/07/13 10:46:16;;;;;;;3.55;0.88;;;24.80;99.90;;;;;;5072099;28;20048;-65
2023/07/13 10:48:44;;;;;;;2.97;0.82;;;25.20;99.90;;;;;;5072505;28;20032;-65
2023/07/13 10:51:15;;;;;;;4.18;0.98;;;24.60;99.90;;;;;;5072902;28;20372;-65
2023/07/13 10:53:42;;;;;;;5.47;1.00;;;24.00;99.90;;;;;;5071952;28;20060;-65
2023/07/13 10:56:12;;;;;;;2.80;0.90;;;25.00;99.90;;;;;;5072100;28;20490;-65
2023/07/13 10:58:39;;;;;;;3.53;1.08;;;24.80;99.90;;;;;;5071981;28;20045;-66
2023/07/13 11:01:15;;;;;;;3.50;1.42;;;25.90;99.90;;;;;;5072170;28;20029;-66
2023/07/13 11:03:43;;;;;;;2.97;0.77;;;26.30;99.90;;;;;;5072126;28;20033;-65
2023/07/13 11:06:29;;;;;;;3.47;0.85;;;25.80;99.90;;;;;;5070991;28;20048;-65
2023/07/13 11:08:57;;;;;;;7.60;0.93;;;26.40;99.50;;;;;;5070500;28;20068;-64
2023/07/13 11:11:26;;;;;;;5.47;1.17;;;26.30;99.90;;;;;;5067603;28;20111;-65
2023/07/13 11:13:51;;;;;;;11.68;1.73;;;26.20;99.30;;;;;;5072149;28;20079;-65
2023/07/13 11:16:20;;;;;;;4.75;1.10;;;26.20;98.20;;;;;;5071969;28;20068;-65
2023/07/13 11:18:48;;;;;;;4.28;0.82;;;26.60;99.10;;;;;;5071835;28;20076;-65
2023/07/13 11:21:26;;;;;;;5.68;1.15;;;26.80;99.20;;;;;;5071717;28;20443;-65
2023/07/13 11:23:55;;;;;;;3.40;1.17;;;27.30;99.10;;;;;;5071315;28;20044;-66
2023/07/13 11:26:40;;;;;;;4.13;0.95;;;27.20;99.10;;;;;;5070234;28;20263;-66
2023/07/13 11:29:21;;;;;;;5.90;1.40;;;26.40;99.40;;;;;;5072109;28;20033;-66
2023/07/13 11:31:55;;;;;;;3.40;1.05;;;26.80;99.70;;;;;;5072032;28;20437;-68
2023/07/13 11:34:33;;;;;;;6.00;1.20;;;26.70;98.80;;;;;;5074453;28;20035;-66
2023/07/13 11:37:00;;;;;;;4.90;1.10;;;27.20;98.30;;;;;;5075554;28;20490;-65
2023/07/13 11:39:35;;;;;;;11.50;1.60;;;27.50;98.90;;;;;;5075512;28;20039;-66
2023/07/13 11:42:05;;;;;;;7.85;1.67;;;26.30;98.90;;;;;;5074939;28;20040;-67
2023/07/13 11:44:34;;;;;;;2.50;1.10;;;26.00;98.90;;;;;;5075442;28;20039;-66
2023/07/13 11:47:09;;;;;;;1.70;1.08;;;25.50;99.30;;;;;;5075377;28;20483;-66
2023/07/13 11:49:49;;;;;;;3.67;0.95;;;26.20;99.90;;;;;;5073719;28;20124;-66
2023/07/13 11:52:21;;;;;;;3.03;1.05;;;25.40;99.20;;;;;;5074687;28;20064;-67
2023/07/13 11:54:57;;;;;;;5.10;1.00;;;24.90;99.90;;;;;;5074805;28;20109;-66
2023/07/13 11:57:48;;;;;;;2.35;0.80;;;24.90;99.90;;;;;;5061715;28;20040;-67
2023/07/13 12:00:22;;;;;;;2.50;0.93;;;24.80;99.70;;;;;;5015804;28;20081;-66
2023/07/13 12:02:51;;;;;;;3.40;1.17;;;24.50;99.90;;;;;;5032740;28;20057;-65
2023/07/13 12:05:18;;;;;;;3.63;1.48;;;25.20;99.90;;;;;;5032699;28;20064;-66
2023/07/13 12:07:44;;;;;;;3.88;1.55;;;24.90;99.90;;;;;;5032583;28;20080;-65
2023/07/13 12:10:23;;;;;;;5.25;1.00;;;24.90;99.90;;;;;;5032778;28;20049;-66
2023/07/13 12:12:56;;;;;;;3.83;1.10;;;24.50;99.90;;;;;;5015639;28;20041;-64
2023/07/13 12:15:37;;;;;;;3.97;1.58;;;24.60;99.90;;;;;;5032710;28;20144;-66
2023/07/13 12:18:03;;;;;;;3.72;1.30;;;24.70;99.90;;;;;;5015376;28;20049;-65
2023/07/13 12:20:37;;;;;;;5.38;1.30;;;24.10;99.90;;;;;;5032265;28;20041;-65
2023/07/13 12:23:06;;;;;;;3.13;0.98;;;23.70;99.90;;;;;;5048470;28;20049;-64
2023/07/13 12:25:32;;;;;;;6.72;1.85;;;23.90;99.90;;;;;;5032578;28;20049;-65
2023/07/13 12:27:58;;;;;;;3.15;1.20;;;24.10;99.90;;;;;;5032466;28;20203;-66
2023/07/13 12:30:30;;;;;;;5.60;1.50;;;24.30;99.90;;;;;;5032312;28;20124;-64
2023/07/13 12:33:16;;;;;;;2.97;1.15;;;24.70;99.30;;;;;;5032220;28;20068;-64
2023/07/13 12:35:47;;;;;;;4.70;1.15;;;24.80;99.90;;;;;;5031768;28;20120;-66
2023/07/13 12:38:13;;;;;;;5.40;1.30;;;24.40;99.90;;;;;;5065098;28;20513;-65
2023/07/13 12:40:40;;;;;;;7.72;1.15;;;24.00;99.90;;;;;;5073974;28;20036;-65
2023/07/13 12:43:14;;;;;;;7.70;1.67;;;24.00;99.90;;;;;;5073357;28;20165;-65
2023/07/13 12:45:55;;;;;;;8.60;1.48;;;23.80;99.90;;;;;;5073702;28;20032;-67
2023/07/13 12:48:21;;;;;;;6.60;1.38;;;23.50;99.90;;;;;;5073947;28;20036;-65
2023/07/13 12:50:50;;;;;;;5.88;1.10;;;23.80;99.90;;;;;;5073743;28;20479;-66